createdAt,value
2022-08-27T00:01:57.904Z,100478.56
2022-08-27T00:04:25.931Z,100472.03
2022-08-27T00:06:54.010Z,100481.38
2022-08-27T00:09:27.081Z,100483.41
2022-08-27T00:11:56.229Z,100476.84
2022-08-27T00:14:25.868Z,100479.72
2022-08-27T00:16:54.101Z,100479.72
2022-08-27T00:19:22.334Z,100481.38
2022-08-27T00:21:50.127Z,100478.53
2022-08-27T00:24:17.945Z,100486.75
2022-08-27T00:26:46.192Z,100490.00
2022-08-27T00:29:13.999Z,100485.00
2022-08-27T00:31:41.844Z,100483.28
2022-08-27T00:34:13.145Z,100489.56
2022-08-27T00:36:42.152Z,100479.66
2022-08-27T00:39:10.247Z,100483.88
2022-08-27T00:41:39.394Z,100483.06
2022-08-27T00:44:07.728Z,100485.00
2022-08-27T00:46:57.753Z,100484.25
2022-08-27T00:49:28.987Z,100486.25
2022-08-27T00:52:00.613Z,100491.19
2022-08-27T00:54:28.545Z,100483.75
2022-08-27T00:56:56.548Z,100485.47
2022-08-27T00:59:25.899Z,100484.47
2022-08-27T01:02:12.690Z,100484.81
2022-08-27T01:04:42.203Z,100476.19
2022-08-27T01:07:10.592Z,100486.41
2022-08-27T01:09:39.079Z,100486.31
2022-08-27T01:12:07.094Z,100486.59
2022-08-27T01:14:35.866Z,100492.38
2022-08-27T01:17:04.263Z,100492.38
2022-08-27T01:19:46.233Z,100493.47
2022-08-27T01:22:23.390Z,100482.41
2022-08-27T01:24:52.693Z,100500.34
2022-08-27T01:27:23.594Z,100492.38
2022-08-27T01:29:51.501Z,100491.53
2022-08-27T01:32:44.516Z,100482.31
2022-08-27T01:35:13.834Z,100488.44
2022-08-27T01:37:42.260Z,100495.13
2022-08-27T01:40:10.741Z,100487.84
2022-08-27T01:42:43.101Z,100488.34
2022-08-27T01:45:17.878Z,100485.69
2022-08-27T01:47:46.289Z,100488.59
2022-08-27T01:50:21.703Z,100496.16
2022-08-27T01:52:50.860Z,100491.13
2022-08-27T01:55:21.388Z,100496.53
2022-08-27T01:57:49.610Z,100486.53
2022-08-27T02:00:24.193Z,100482.69
2022-08-27T02:02:52.308Z,100481.00
2022-08-27T02:05:20.226Z,100482.34
2022-08-27T02:07:48.459Z,100489.00
2022-08-27T02:10:20.863Z,100480.34
2022-08-27T02:12:49.896Z,100479.75
2022-08-27T02:15:20.547Z,100492.75
2022-08-27T02:17:48.897Z,100490.84
2022-08-27T02:20:18.018Z,100495.34
2022-08-27T02:22:46.440Z,100491.16
2022-08-27T02:25:16.695Z,100490.91
2022-08-27T02:27:45.675Z,100489.81
2022-08-27T02:30:16.071Z,100489.22
2022-08-27T02:32:47.560Z,100490.91
2022-08-27T02:35:17.616Z,100485.63
2022-08-27T02:37:46.478Z,100493.91
2022-08-27T02:40:17.836Z,100492.00
2022-08-27T02:42:46.326Z,100500.78
2022-08-27T02:45:14.432Z,100492.75
2022-08-27T02:47:42.451Z,100499.63
2022-08-27T02:50:11.259Z,100513.88
2022-08-27T02:52:38.963Z,100509.34
2022-08-27T02:55:07.164Z,100515.69
2022-08-27T02:57:36.801Z,100514.63
2022-08-27T03:00:08.577Z,100511.19
2022-08-27T03:02:37.349Z,100517.22
2022-08-27T03:05:06.595Z,100525.25
2022-08-27T03:07:35.653Z,100515.78
2022-08-27T03:10:04.833Z,100515.38
2022-08-27T03:12:36.233Z,100510.44
2022-08-27T03:15:06.455Z,100503.97
2022-08-27T03:17:53.088Z,100513.19
2022-08-27T03:20:21.245Z,100512.34
2022-08-27T03:22:49.588Z,100504.31
2022-08-27T03:25:18.361Z,100506.91
2022-08-27T03:27:46.988Z,100515.22
2022-08-27T03:30:17.996Z,100518.31
2022-08-27T03:32:47.364Z,100524.34
2022-08-27T03:35:15.610Z,100523.28
2022-08-27T03:37:43.927Z,100525.78
2022-08-27T03:40:13.488Z,100533.34
2022-08-27T03:42:42.797Z,100519.75
2022-08-27T03:45:11.669Z,100521.41
2022-08-27T03:47:39.713Z,100513.38
2022-08-27T03:50:08.416Z,100521.69
2022-08-27T03:52:36.965Z,100515.66
2022-08-27T03:55:06.124Z,100519.59
2022-08-27T03:57:34.208Z,100521.28
2022-08-27T04:00:02.289Z,100518.59
2022-08-27T04:02:41.673Z,100510.19
2022-08-27T04:05:11.651Z,100510.78
2022-08-27T04:07:41.222Z,100513.06
2022-08-27T04:10:10.491Z,100511.38
2022-08-27T04:12:38.974Z,100505.25
2022-08-27T04:15:10.840Z,100501.41
2022-08-27T04:17:40.163Z,100498.66
2022-08-27T04:20:33.995Z,100495.69
2022-08-27T04:22:57.237Z,100510.50
2022-08-27T04:25:25.168Z,100504.56
2022-08-27T04:27:54.004Z,100503.22
2022-08-27T04:30:21.950Z,100501.50
2022-08-27T04:32:50.851Z,100509.72
2022-08-27T04:35:18.675Z,100503.84
2022-08-27T04:37:46.856Z,100499.84
2022-08-27T04:40:14.762Z,100494.53
2022-08-27T04:42:42.905Z,100497.63
2022-08-27T04:45:11.119Z,100505.06
2022-08-27T04:47:39.292Z,100500.09
2022-08-27T04:50:07.537Z,100500.44
2022-08-27T04:52:41.076Z,100496.09
2022-08-27T04:55:10.404Z,100493.94
2022-08-27T04:57:38.324Z,100504.59
2022-08-27T05:00:08.755Z,100505.13
2022-08-27T05:02:36.910Z,100493.03
2022-08-27T05:05:05.059Z,100491.88
2022-08-27T05:07:33.036Z,100489.84
2022-08-27T05:10:00.983Z,100492.44
2022-08-27T05:12:28.568Z,100490.28
2022-08-27T05:14:56.446Z,100497.31
2022-08-27T05:17:24.654Z,100496.97
2022-08-27T05:19:53.072Z,100493.50
2022-08-27T05:22:21.491Z,100497.16
2022-08-27T05:24:50.262Z,100491.84
2022-08-27T05:27:18.510Z,100492.94
2022-08-27T05:29:46.440Z,100494.00
2022-08-27T05:32:14.357Z,100496.75
2022-08-27T05:34:42.424Z,100491.75
2022-08-27T05:37:10.775Z,100495.13
2022-08-27T05:39:38.660Z,100492.34
2022-08-27T05:42:07.756Z,100494.00
2022-08-27T05:44:43.235Z,100487.91
2022-08-27T05:47:11.017Z,100485.41
2022-08-27T05:49:41.741Z,100485.13
2022-08-27T05:52:15.467Z,100483.19
2022-08-27T05:54:50.163Z,100480.09
2022-08-27T05:57:18.880Z,100482.88
2022-08-27T06:00:05.938Z,100482.91
2022-08-27T06:02:51.255Z,100483.25
2022-08-27T06:05:21.089Z,100483.25
2022-08-27T06:07:50.085Z,100485.19
2022-08-27T06:10:24.009Z,100486.88
2022-08-27T06:12:56.842Z,100480.72
2022-08-27T06:15:24.868Z,100482.09
2022-08-27T06:17:53.635Z,100476.53
2022-08-27T06:20:22.251Z,100473.75
2022-08-27T06:22:50.107Z,100469.84
2022-08-27T06:25:17.863Z,100469.25
2022-08-27T06:27:45.426Z,100468.41
2022-08-27T06:30:17.331Z,100449.38
2022-08-27T06:32:45.681Z,100458.31
2022-08-27T06:35:13.420Z,100459.34
2022-08-27T06:37:41.047Z,100452.84
2022-08-27T06:40:10.916Z,100449.97
2022-08-27T06:42:38.879Z,100448.53
2022-08-27T06:45:08.412Z,100450.34
2022-08-27T06:47:36.495Z,100449.44
2022-08-27T06:50:04.754Z,100447.13
2022-08-27T06:52:32.986Z,100443.13
2022-08-27T06:55:01.849Z,100443.03
2022-08-27T06:57:31.489Z,100452.03
2022-08-27T07:00:00.060Z,100446.91
2022-08-27T07:02:29.937Z,100447.97
2022-08-27T07:04:57.972Z,100455.66
2022-08-27T07:07:36.481Z,100447.28
2022-08-27T07:10:10.482Z,100448.81
2022-08-27T07:12:43.658Z,100444.97
2022-08-27T07:15:12.782Z,100447.81
2022-08-27T07:17:44.852Z,100438.56
2022-08-27T07:20:13.443Z,100438.41
2022-08-27T07:22:42.193Z,100431.59
2022-08-27T07:25:13.031Z,100420.06
2022-08-27T07:27:42.108Z,100421.88
2022-08-27T07:30:12.580Z,100407.69
2022-08-27T07:32:43.853Z,100408.09
2022-08-27T07:35:15.501Z,100405.25
2022-08-27T07:37:44.297Z,100408.53
2022-08-27T07:40:16.237Z,100400.34
2022-08-27T07:43:02.587Z,100407.22
2022-08-27T07:45:37.018Z,100407.78
2022-08-27T07:48:05.255Z,100406.56
2022-08-27T07:50:33.804Z,100397.84
2022-08-27T07:53:05.795Z,100392.91
2022-08-27T07:55:39.727Z,100397.59
2022-08-27T07:58:11.594Z,100401.69
2022-08-27T08:00:47.285Z,100391.78
2022-08-27T08:03:16.279Z,100392.22
2022-08-27T08:05:55.344Z,100392.97
2022-08-27T08:08:25.039Z,100386.28
2022-08-27T08:11:06.642Z,100389.16
2022-08-27T08:13:43.970Z,100384.84
2022-08-27T08:16:13.110Z,100375.19
2022-08-27T08:18:42.031Z,100381.78
2022-08-27T08:21:13.541Z,100391.56
2022-08-27T08:23:42.955Z,100384.53
2022-08-27T08:26:12.860Z,100386.03
2022-08-27T08:28:41.116Z,100377.00
2022-08-27T08:31:09.299Z,100372.66
2022-08-27T08:33:37.785Z,100381.44
2022-08-27T08:36:13.283Z,100383.13
2022-08-27T08:38:41.567Z,100376.38
2022-08-27T08:41:35.234Z,100385.72
2022-08-27T08:44:06.839Z,100368.31
2022-08-27T08:46:39.951Z,100368.66
2022-08-27T08:49:16.565Z,100367.91
2022-08-27T08:51:48.504Z,100368.88
2022-08-27T08:54:20.781Z,100374.09
2022-08-27T08:56:57.592Z,100371.69
2022-08-27T08:59:43.272Z,100377.38
2022-08-27T09:02:15.912Z,100381.94
2022-08-27T09:04:43.972Z,100377.84
2022-08-27T09:07:37.228Z,100377.16
2022-08-27T09:10:11.350Z,100380.06
2022-08-27T09:12:40.075Z,100379.66
2022-08-27T09:15:12.413Z,100380.41
2022-08-27T09:17:42.549Z,100372.69
2022-08-27T09:20:25.553Z,100367.41
2022-08-27T09:23:24.892Z,100366.13
2022-08-27T09:25:53.992Z,100367.81
2022-08-27T09:28:43.691Z,100373.03
2022-08-27T09:31:19.420Z,100373.97
2022-08-27T09:33:56.240Z,100374.94
2022-08-27T09:36:25.843Z,100374.47
2022-08-27T09:38:59.434Z,100383.06
2022-08-27T09:41:29.908Z,100382.13
2022-08-27T09:44:01.642Z,100377.25
2022-08-27T09:46:29.841Z,100367.47
2022-08-27T09:48:57.644Z,100387.09
2022-08-27T09:51:28.158Z,100384.28
2022-08-27T09:53:58.640Z,100382.94
2022-08-27T09:56:42.326Z,100389.41
2022-08-27T09:59:12.414Z,100385.63
2022-08-27T10:01:54.955Z,100383.72
2022-08-27T10:04:51.083Z,100390.94
2022-08-27T10:07:38.883Z,100389.00
2022-08-27T10:10:25.834Z,100391.44
2022-08-27T10:12:58.749Z,100390.47
2022-08-27T10:15:30.512Z,100387.72
2022-08-27T10:18:08.514Z,100390.00
2022-08-27T10:20:45.033Z,100394.00
2022-08-27T10:23:31.571Z,100381.03
2022-08-27T10:26:12.926Z,100387.16
2022-08-27T10:29:05.212Z,100390.81
2022-08-27T10:31:54.324Z,100383.28
2022-08-27T10:34:28.891Z,100389.41
2022-08-27T10:37:21.630Z,100398.06
2022-08-27T10:40:25.422Z,100391.25
2022-08-27T10:43:32.724Z,100390.56
2022-08-27T10:46:06.382Z,100392.44
2022-08-27T10:48:35.140Z,100388.63
2022-08-27T10:51:28.924Z,100389.53
2022-08-27T10:54:31.991Z,100385.03
2022-08-27T10:57:53.214Z,100389.38
2022-08-27T11:00:17.750Z,100399.16
2022-08-27T11:02:58.815Z,100391.97
2022-08-27T11:05:26.343Z,100382.31
2022-08-27T11:08:08.147Z,100386.16
2022-08-27T11:10:38.928Z,100380.56
2022-08-27T11:13:10.704Z,100386.72
2022-08-27T11:15:40.836Z,100381.41
2022-08-27T11:18:41.392Z,100379.56
2022-08-27T11:21:12.227Z,100386.06
2022-08-27T11:23:44.280Z,100383.94
2022-08-27T11:26:13.910Z,100379.22
2022-08-27T11:29:00.649Z,100385.69
2022-08-27T11:31:44.090Z,100388.22
2022-08-27T11:34:28.266Z,100374.00
2022-08-27T11:37:14.517Z,100374.41
2022-08-27T11:39:51.714Z,100381.78
2022-08-27T11:42:41.480Z,100371.91
2022-08-27T11:45:16.972Z,100371.88
2022-08-27T11:47:58.369Z,100374.06
2022-08-27T11:50:29.034Z,100372.78
2022-08-27T11:53:06.531Z,100377.81
2022-08-27T11:55:39.014Z,100378.91
2022-08-27T11:58:18.013Z,100375.88
2022-08-27T12:00:46.779Z,100380.69
2022-08-27T12:03:21.066Z,100373.44
2022-08-27T12:06:05.975Z,100377.38
2022-08-27T12:08:35.362Z,100379.00
2022-08-27T12:11:10.003Z,100374.75
2022-08-27T12:13:59.984Z,100382.44
2022-08-27T12:16:55.945Z,100380.84
2022-08-27T12:19:57.760Z,100374.56
2022-08-27T12:22:59.566Z,100370.47
2022-08-27T12:25:30.591Z,100372.25
2022-08-27T12:28:03.308Z,100378.50
2022-08-27T12:30:33.896Z,100380.47
2022-08-27T12:33:24.123Z,100371.25
2022-08-27T12:35:52.385Z,100375.13
2022-08-27T12:38:43.774Z,100375.72
2022-08-27T12:41:44.213Z,100380.13
2022-08-27T12:44:23.692Z,100373.22
2022-08-27T12:47:08.259Z,100375.34
2022-08-27T12:49:59.603Z,100366.50
2022-08-27T12:53:12.847Z,100365.91
2022-08-27T12:56:00.218Z,100369.94
2022-08-27T12:59:17.044Z,100370.78
2022-08-27T13:02:06.293Z,100372.75
2022-08-27T13:04:37.177Z,100364.19
2022-08-27T13:07:05.151Z,100367.56
2022-08-27T13:09:35.199Z,100364.19
2022-08-27T13:12:05.187Z,100369.47
2022-08-27T13:14:42.153Z,100380.22
2022-08-27T13:17:17.800Z,100378.03
2022-08-27T13:19:57.234Z,100376.03
2022-08-27T13:22:38.910Z,100367.91
2022-08-27T13:25:07.598Z,100384.78
2022-08-27T13:27:36.410Z,100376.44
2022-08-27T13:30:07.651Z,100378.63
2022-08-27T13:32:36.431Z,100382.47
2022-08-27T13:35:04.713Z,100378.75
2022-08-27T13:37:35.444Z,100374.81
2022-08-27T13:40:03.546Z,100384.22
2022-08-27T13:42:31.658Z,100388.75
2022-08-27T13:45:04.234Z,100386.09
2022-08-27T13:47:32.114Z,100382.63
2022-08-27T13:50:08.823Z,100392.44
2022-08-27T13:52:58.006Z,100392.44
2022-08-27T13:55:25.913Z,100393.03
2022-08-27T13:57:53.709Z,100389.53
2022-08-27T14:00:27.212Z,100383.53
2022-08-27T14:02:55.488Z,100382.88
2022-08-27T14:05:23.738Z,100387.22
2022-08-27T14:07:57.809Z,100388.22
2022-08-27T14:10:34.332Z,100391.84
2022-08-27T14:13:06.227Z,100395.50
2022-08-27T14:15:38.551Z,100388.38
2022-08-27T14:18:08.590Z,100391.69
2022-08-27T14:20:37.168Z,100380.06
2022-08-27T14:23:05.232Z,100381.84
2022-08-27T14:25:34.715Z,100382.16
2022-08-27T14:28:02.652Z,100373.53
2022-08-27T14:30:31.562Z,100384.56
2022-08-27T14:33:00.593Z,100375.69
2022-08-27T14:35:29.186Z,100372.88
2022-08-27T14:37:56.836Z,100373.31
2022-08-27T14:40:24.484Z,100372.78
2022-08-27T14:42:52.784Z,100369.47
2022-08-27T14:45:21.007Z,100374.91
2022-08-27T14:47:48.610Z,100380.19
2022-08-27T14:50:16.499Z,100379.88
2022-08-27T14:52:44.610Z,100370.56
2022-08-27T14:55:13.876Z,100369.63
2022-08-27T14:57:41.806Z,100374.81
2022-08-27T15:00:10.276Z,100373.16
2022-08-27T15:02:45.162Z,100369.56
2022-08-27T15:05:18.156Z,100368.75
2022-08-27T15:07:47.352Z,100366.91
2022-08-27T15:10:15.142Z,100367.81
2022-08-27T15:12:42.804Z,100362.06
2022-08-27T15:15:10.818Z,100373.28
2022-08-27T15:17:38.441Z,100365.81
2022-08-27T15:20:09.056Z,100369.13
2022-08-27T15:22:40.187Z,100359.44
2022-08-27T15:25:11.874Z,100356.47
2022-08-27T15:27:39.783Z,100355.75
2022-08-27T15:30:10.092Z,100346.13
2022-08-27T15:32:41.734Z,100345.25
2022-08-27T15:35:12.598Z,100339.19
2022-08-27T15:37:41.315Z,100335.47
2022-08-27T15:40:10.653Z,100340.47
2022-08-27T15:42:38.648Z,100340.22
2022-08-27T15:45:07.100Z,100347.50
2022-08-27T15:47:35.763Z,100358.97
2022-08-27T15:50:03.596Z,100362.91
2022-08-27T15:52:40.388Z,100358.38
2022-08-27T15:55:22.815Z,100352.38
2022-08-27T15:57:50.639Z,100355.44
2022-08-27T16:00:18.908Z,100349.97
2022-08-27T16:02:47.023Z,100358.06
2022-08-27T16:05:15.047Z,100357.41
2022-08-27T16:07:42.800Z,100362.34
2022-08-27T16:10:11.853Z,100366.44
2022-08-27T16:12:39.467Z,100368.63
2022-08-27T16:15:07.889Z,100361.66
2022-08-27T16:17:35.749Z,100365.38
2022-08-27T16:20:04.431Z,100359.53
2022-08-27T16:22:32.071Z,100349.00
2022-08-27T16:25:00.133Z,100341.25
2022-08-27T16:27:27.713Z,100351.94
2022-08-27T16:29:55.519Z,100359.78
2022-08-27T16:32:25.759Z,100346.44
2022-08-27T16:34:55.494Z,100350.72
2022-08-27T16:37:24.897Z,100362.34
2022-08-27T16:39:53.903Z,100363.75
2022-08-27T16:42:21.689Z,100342.50
2022-08-27T16:44:49.372Z,100338.44
2022-08-27T16:47:16.957Z,100341.59
2022-08-27T16:50:03.001Z,100354.09
2022-08-27T16:52:31.133Z,100361.13
2022-08-27T16:55:00.281Z,100365.66
2022-08-27T16:57:27.870Z,100372.47
2022-08-27T16:59:56.028Z,100373.41
2022-08-27T17:02:30.229Z,100379.38
2022-08-27T17:05:17.334Z,100367.94
2022-08-27T17:07:49.082Z,100342.50
2022-08-27T17:10:18.487Z,100339.94
2022-08-27T17:12:47.288Z,100354.69
2022-08-27T17:15:17.485Z,100363.34
2022-08-27T17:17:46.640Z,100365.28
2022-08-27T17:20:15.260Z,100371.03
2022-08-27T17:22:43.564Z,100396.78
2022-08-27T17:25:11.169Z,100401.53
2022-08-27T17:27:38.713Z,100412.31
2022-08-27T17:30:06.950Z,100403.69
2022-08-27T17:32:37.489Z,100404.81
2022-08-27T17:35:06.655Z,100404.53
2022-08-27T17:37:34.607Z,100403.41
2022-08-27T17:40:02.376Z,100405.75
2022-08-27T17:42:31.231Z,100410.59
2022-08-27T17:44:58.947Z,100407.03
2022-08-27T17:47:27.078Z,100407.56
2022-08-27T17:49:54.727Z,100407.00
2022-08-27T17:52:22.570Z,100414.00
2022-08-27T17:54:56.344Z,100408.47
2022-08-27T17:57:29.549Z,100416.28
2022-08-27T18:00:09.234Z,100411.56
2022-08-27T18:02:39.267Z,100422.19
2022-08-27T18:05:08.891Z,100417.69
2022-08-27T18:07:39.838Z,100415.75
2022-08-27T18:10:09.649Z,100402.94
2022-08-27T18:12:37.188Z,100408.84
2022-08-27T18:15:29.790Z,100407.16
2022-08-27T18:17:58.265Z,100397.94
2022-08-27T18:20:26.967Z,100399.63
2022-08-27T18:22:54.795Z,100400.44
2022-08-27T18:25:25.027Z,100399.28
2022-08-27T18:27:54.850Z,100409.06
2022-08-27T18:30:22.789Z,100411.88
2022-08-27T18:32:50.569Z,100417.19
2022-08-27T18:35:20.263Z,100425.28
2022-08-27T18:37:48.000Z,100418.63
2022-08-27T18:40:16.506Z,100422.19
2022-08-27T18:42:44.334Z,100431.13
2022-08-27T18:45:16.009Z,100423.03
2022-08-27T18:47:43.861Z,100431.66
2022-08-27T18:50:17.737Z,100429.97
2022-08-27T18:52:46.616Z,100429.13
2022-08-27T18:55:16.469Z,100438.06
2022-08-27T18:57:44.341Z,100431.34
2022-08-27T19:00:13.511Z,100442.78
2022-08-27T19:02:41.392Z,100436.06
2022-08-27T19:05:09.720Z,100441.06
2022-08-27T19:07:37.900Z,100438.28
2022-08-27T19:10:06.350Z,100429.38
2022-08-27T19:12:34.256Z,100430.72
2022-08-27T19:15:04.734Z,100431.50
2022-08-27T19:17:33.417Z,100439.56
2022-08-27T19:20:01.145Z,100435.34
2022-08-27T19:22:30.851Z,100444.22
2022-08-27T19:24:58.613Z,100447.00
2022-08-27T19:27:27.665Z,100433.06
2022-08-27T19:29:56.184Z,100433.28
2022-08-27T19:32:23.799Z,100435.78
2022-08-27T19:34:51.434Z,100438.81
2022-08-27T19:37:21.746Z,100434.88
2022-08-27T19:39:49.459Z,100426.00
2022-08-27T19:42:17.269Z,100426.25
2022-08-27T19:44:45.599Z,100427.66
2022-08-27T19:47:14.191Z,100424.06
2022-08-27T19:49:45.054Z,100420.16
2022-08-27T19:52:12.948Z,100422.94
2022-08-27T19:54:56.831Z,100423.19
2022-08-27T19:57:28.240Z,100422.94
2022-08-27T19:59:55.817Z,100426.28
2022-08-27T20:02:23.349Z,100424.59
2022-08-27T20:05:14.188Z,100434.88
2022-08-27T20:07:38.509Z,100435.72
2022-08-27T20:10:08.130Z,100438.25
2022-08-27T20:12:37.217Z,100436.56
2022-08-27T20:15:06.459Z,100434.59
2022-08-27T20:17:35.665Z,100437.06
2022-08-27T20:20:04.493Z,100449.03
2022-08-27T20:22:32.496Z,100440.13
2022-08-27T20:25:00.125Z,100440.66
2022-08-27T20:27:27.749Z,100442.88
2022-08-27T20:29:56.105Z,100440.59
2022-08-27T20:32:29.698Z,100422.22
2022-08-27T20:34:58.536Z,100425.53
2022-08-27T20:37:26.304Z,100418.81
2022-08-27T20:39:54.141Z,100409.31
2022-08-27T20:42:21.740Z,100420.09
2022-08-27T20:44:49.502Z,100417.59
2022-08-27T20:47:17.130Z,100429.22
2022-08-27T20:49:45.091Z,100424.19
2022-08-27T20:52:13.148Z,100417.44
2022-08-27T20:54:41.011Z,100418.22
2022-08-27T20:57:09.079Z,100413.78
2022-08-27T20:59:56.109Z,100423.19
2022-08-27T21:02:25.349Z,100415.94
2022-08-27T21:04:53.161Z,100418.03
2022-08-27T21:07:21.180Z,100409.06
2022-08-27T21:09:57.193Z,100405.38
2022-08-27T21:12:26.577Z,100413.16
2022-08-27T21:14:56.277Z,100418.03
2022-08-27T21:17:26.629Z,100416.88
2022-08-27T21:19:54.274Z,100416.84
2022-08-27T21:22:22.264Z,100419.22
2022-08-27T21:24:49.904Z,100410.78
2022-08-27T21:27:18.123Z,100405.41
2022-08-27T21:29:45.746Z,100406.59
2022-08-27T21:32:14.423Z,100409.69
2022-08-27T21:34:42.313Z,100412.44
2022-08-27T21:37:11.632Z,100418.00
2022-08-27T21:39:40.107Z,100404.84
2022-08-27T21:42:08.228Z,100398.84
2022-08-27T21:44:36.175Z,100407.44
2022-08-27T21:47:03.989Z,100398.78
2022-08-27T21:49:32.710Z,100405.50
2022-08-27T21:52:01.027Z,100394.16
2022-08-27T21:54:30.165Z,100401.88
2022-08-27T21:56:57.863Z,100394.88
2022-08-27T21:59:25.388Z,100400.72
2022-08-27T22:02:00.213Z,100398.38
2022-08-27T22:04:29.780Z,100400.84
2022-08-27T22:06:59.606Z,100399.66
2022-08-27T22:09:27.536Z,100407.72
2022-08-27T22:11:56.334Z,100406.69
2022-08-27T22:14:24.145Z,100398.13
2022-08-27T22:16:51.996Z,100401.47
2022-08-27T22:19:19.816Z,100415.63
2022-08-27T22:21:47.556Z,100406.91
2022-08-27T22:24:15.204Z,100406.72
2022-08-27T22:26:43.033Z,100395.94
2022-08-27T22:29:10.717Z,100403.69
2022-08-27T22:31:39.677Z,100400.69
2022-08-27T22:34:08.261Z,100406.09
2022-08-27T22:36:42.523Z,100410.41
2022-08-27T22:39:10.072Z,100411.13
2022-08-27T22:41:37.944Z,100405.31
2022-08-27T22:44:09.603Z,100402.81
2022-08-27T22:46:37.199Z,100404.41
2022-08-27T22:49:04.894Z,100405.56
2022-08-27T22:51:32.502Z,100410.91
2022-08-27T22:54:00.067Z,100409.03
2022-08-27T22:56:27.627Z,100405.19
2022-08-27T22:58:55.290Z,100392.41
2022-08-27T23:01:22.926Z,100393.56
2022-08-27T23:03:50.594Z,100396.94
2022-08-27T23:06:18.240Z,100393.91
2022-08-27T23:08:45.944Z,100404.13
2022-08-27T23:11:13.582Z,100407.41
2022-08-27T23:13:41.308Z,100393.44
2022-08-27T23:16:11.909Z,100393.72
2022-08-27T23:18:40.773Z,100396.81
2022-08-27T23:21:09.600Z,100394.09
2022-08-27T23:23:37.426Z,100383.59
2022-08-27T23:26:24.069Z,100393.25
2022-08-27T23:31:19.542Z,100394.03
2022-08-27T23:33:47.097Z,100389.38
2022-08-27T23:36:14.731Z,100390.78
2022-08-27T23:38:42.618Z,100394.69
2022-08-27T23:41:10.721Z,100388.28
2022-08-27T23:43:38.693Z,100385.19
2022-08-27T23:46:06.240Z,100388.56
2022-08-27T23:48:33.871Z,100388.63
2022-08-27T23:51:01.559Z,100385.91
2022-08-27T23:53:29.184Z,100384.34
2022-08-27T23:55:56.676Z,100385.28
2022-08-27T23:58:24.633Z,100386.41
